Eastmanville, Michigan
Current Conditions -  °F | °C
As of 12:06 PM on Thursday 27 Nov 2014 (Local Time) from KMKG Reporting Station
Light Snow Light Snow  
Wind Chill: 16°   Ceiling: 4100
Heat Index: 29°   Visibility: 0.5mi
Dew Point: 21°   Wind: 18mph
Humidity: 72%   Direction: 340°NNW
Pressure: 30.24"   Gusts: 23mph
Location:  43.0662°N, 85.9564°W
Report Text: KMKG 271706Z 34016G20KT 1/2SM R32/P6000FT -SN SCT013 BKN041 OVC050 M02/M06 A3024 RMK AO2 SFC VIS 5 P0000 T10171061
Loading
Personal Weather Stations






























Interactive Weather Map New forecast layout! Learn more

10-Day Weather Forecast

Advertisements
Track Severe Weather on mobile